DTTF/GAF METAR and TAF weather

Enter ICAO airport designator
Station Type Date Time Source
DTTF METAR 2024/07/24 12:00 UTC NOAA

DTTF 241200Z 01007KT 300V060 CAVOK 34/09 Q1016 NOSIG


Station Type Date Time Source
DTTF Decoded METAR 2024/07/24 12:00 UTC NOAA

Gafsa, Tunisia (DTTF) 34-25N 008-49E 314M
Jul 24, 2024 - 08:00 AM EDT / 2024.07.24 1200 UTC
Wind: from the N (010 degrees) at 8 MPH (7 KT) (direction variable):0
Visibility: greater than 7 mile(s):0
Temperature: 93 F (34 C)
Dew Point: 48 F (9 C)
Relative Humidity: 21%
Pressure (altimeter): 30.00 in. Hg (1016 hPa)
ob: DTTF 241200Z 01007KT 300V060 CAVOK 34/09 Q1016 NOSIG
cycle: 12

Station Type Date Time Source
DTTF TAF 2024/03/12 19:00 UTC NOAA